To NAV CANADA Home Page Login to a new session Search on AWWS site Feedback and Comments Disclaimer Vers la page française équivalente Tips FAQ What's new on the site To the Forecasts and Observations / NOTAM section To "File a Flight Plan" website Publications and other links Update of the User's profile FIC Telephone Numbers My Weather Data Folder Route Weather Data Regional Weather Data Local Weather Data To the Forecasts and Observations / NOTAM section
Request Generated 03/28/2017 at 02:22:01 UTC . Weather information available at that time is displayed.

METAR/TAF

TALOYOAK/NU    

METAR CYYH 280200Z 16018KT 1SM -SN BLSN OVC030 M16/M19 A3012 RMK
BLSN2SC6 VIS S 1/2 SLP205=
SPECI CYYH 280126Z 16017KT 1SM -SN BLSN OVC030 M17/M20 A3014 RMK
BLSN2SC6 VIS S 1/2 SLP211=
METAR CYYH 280100Z 16015KT 2SM -SN BLSN BKN030 OVC080 M18/M21 A3015
RMK BLSN2SC4AC2 SLP215=
SPECI CYYH 280026Z 15019KT 2SM -SN BLSN BKN030 BKN080 M18/M21 A3016
RMK BLSN2SC4AC1 SLP218=
METAR CYYH 280000Z 15017KT 10SM -SN DRSN SCT030 BKN080 BKN210 M18/M22
A3017 RMK SC4AC2CI1 SLP223=

TAF AMD CYYH 280214Z 2802/2812 17015G25KT 3SM -SN OVC030 TEMPO
2802/2807 1SM -SN BLSN BKN015 OVC080
FM280700 20015KT 4SM -SN BKN020 TEMPO 2807/2810 P6SM NSW BKN040
FM281000 24015KT P6SM FEW030
RMK NXT FCST BY 280600Z=
Your time UTC time
Weather data provided by Environment Canada and NAV CANADA